Time;durP1;ratioP1;P1;durP2;ratioP2;P2;SDS_P1;SDS_P2;PMS_P1;PMS_P2;Temp;Humidity;BMP_temperature;BMP_pressure;BME280_temperature;BME280_humidity;BME280_pressure;Samples;Min_cycle;Max_cycle;Signal;HPM_P1;HPM_P2
2022/07/03 00:00:26;;;;;;;6.00;3.83;;;17.40;94.30;;;;;;4992920;28;20515;-66
2022/07/03 00:02:53;;;;;;;3.17;2.60;;;17.40;94.30;;;;;;4993063;28;20510;-66
2022/07/03 00:05:20;;;;;;;3.50;2.53;;;17.40;94.40;;;;;;4992774;28;20443;-66
2022/07/03 00:07:47;;;;;;;3.97;2.63;;;17.40;94.20;;;;;;4993245;28;20468;-66
2022/07/03 00:10:15;;;;;;;9.90;3.30;;;17.40;94.30;;;;;;4992728;28;20439;-66
2022/07/03 00:12:43;;;;;;;5.97;2.70;;;17.40;94.40;;;;;;4992742;28;20436;-67
2022/07/03 00:15:11;;;;;;;3.50;2.70;;;17.40;94.50;;;;;;4992823;28;20482;-67
2022/07/03 00:17:38;;;;;;;6.00;2.40;;;17.40;94.50;;;;;;4993172;28;20934;-67
2022/07/03 00:20:06;;;;;;;5.67;3.50;;;17.50;94.50;;;;;;4992437;28;20440;-66
2022/07/03 00:22:37;;;;;;;4.30;2.83;;;17.50;94.70;;;;;;4992874;28;20483;-66
2022/07/03 00:25:07;;;;;;;4.00;2.60;;;17.50;94.60;;;;;;4991846;28;20440;-66
2022/07/03 00:27:35;;;;;;;4.33;3.20;;;17.60;94.60;;;;;;4992946;28;20439;-66
2022/07/03 00:30:07;;;;;;;5.97;2.87;;;17.50;94.70;;;;;;4992466;28;20491;-66
2022/07/03 00:32:38;;;;;;;3.63;2.50;;;17.50;94.60;;;;;;4991413;28;20464;-72
2022/07/03 00:35:07;;;;;;;3.50;2.90;;;17.50;94.60;;;;;;4973485;28;20859;-66
2022/07/03 00:37:34;;;;;;;3.20;2.60;;;17.60;94.70;;;;;;4978742;28;20450;-66
2022/07/03 00:40:02;;;;;;;4.43;3.00;;;17.60;94.70;;;;;;4992640;28;20506;-66
2022/07/03 00:42:31;;;;;;;4.67;2.47;;;17.50;94.60;;;;;;4992206;28;20490;-67
2022/07/03 00:45:00;;;;;;;4.20;3.03;;;17.60;94.70;;;;;;4993468;28;20453;-66
2022/07/03 00:47:29;;;;;;;3.73;2.77;;;17.60;94.60;;;;;;4996664;28;20439;-66
2022/07/03 00:49:58;;;;;;;2.80;2.40;;;17.50;94.70;;;;;;4996744;28;20796;-66
2022/07/03 00:52:25;;;;;;;6.33;2.90;;;17.60;94.80;;;;;;4996395;28;20444;-66
2022/07/03 00:54:54;;;;;;;4.93;3.17;;;17.60;94.80;;;;;;4996380;28;20934;-66
2022/07/03 00:57:22;;;;;;;3.93;3.00;;;17.60;94.80;;;;;;4995324;28;20436;-66
2022/07/03 00:59:50;;;;;;;5.57;3.40;;;17.60;94.80;;;;;;4996761;28;21028;-66
2022/07/03 01:02:33;;;;;;;3.77;2.80;;;17.60;94.80;;;;;;4996164;28;21040;-66
2022/07/03 01:05:07;;;;;;;5.73;2.67;;;17.60;94.90;;;;;;4995653;28;20965;-66
2022/07/03 01:07:42;;;;;;;5.57;3.97;;;17.60;94.80;;;;;;4996682;28;20497;-67
2022/07/03 01:10:18;;;;;;;9.50;3.93;;;17.60;94.90;;;;;;4996083;28;20446;-66
2022/07/03 01:12:56;;;;;;;4.93;3.90;;;17.60;95.00;;;;;;4996346;28;20435;-67
2022/07/03 01:15:37;;;;;;;4.30;3.00;;;17.50;95.00;;;;;;4995927;28;20949;-66
2022/07/03 01:18:21;;;;;;;5.43;3.63;;;17.40;95.20;;;;;;4996452;28;20439;-66
2022/07/03 01:20:55;;;;;;;5.80;3.70;;;17.40;95.40;;;;;;4995884;28;20427;-66
2022/07/03 01:23:32;;;;;;;5.50;3.90;;;17.40;95.50;;;;;;4995751;28;20478;-66
2022/07/03 01:26:05;;;;;;;3.27;2.50;;;17.40;95.70;;;;;;4996241;28;20451;-67
2022/07/03 01:28:37;;;;;;;3.93;2.67;;;17.40;95.80;;;;;;4995414;28;20807;-66
2022/07/03 01:31:04;;;;;;;5.77;3.00;;;17.40;95.70;;;;;;4996138;28;20445;-66
2022/07/03 01:33:34;;;;;;;7.67;6.10;;;17.30;95.90;;;;;;4995606;28;20455;-66
2022/07/03 01:36:06;;;;;;;8.60;5.83;;;17.30;96.10;;;;;;4995845;28;20845;-66
2022/07/03 01:38:35;;;;;;;9.27;5.67;;;17.40;96.20;;;;;;4995506;28;20451;-66
2022/07/03 01:41:05;;;;;;;6.23;5.00;;;17.40;96.10;;;;;;4995478;28;20462;-66
2022/07/03 01:43:34;;;;;;;4.93;4.13;;;17.40;96.20;;;;;;4995510;28;20855;-66
2022/07/03 01:46:03;;;;;;;5.27;3.30;;;17.40;96.20;;;;;;4995538;28;20446;-66
2022/07/03 01:48:32;;;;;;;9.83;3.07;;;17.40;96.10;;;;;;4995454;28;20475;-66
2022/07/03 01:51:00;;;;;;;3.10;2.50;;;17.40;96.00;;;;;;4994979;28;20505;-66
2022/07/03 01:53:29;;;;;;;4.40;3.23;;;17.40;96.10;;;;;;4995457;28;20856;-66
2022/07/03 01:55:57;;;;;;;4.63;2.80;;;17.40;96.20;;;;;;4995358;28;20447;-66
2022/07/03 01:58:26;;;;;;;3.77;2.57;;;17.40;96.20;;;;;;4994556;28;20438;-66
2022/07/03 02:01:03;;;;;;;6.70;2.43;;;17.40;96.20;;;;;;4994982;28;20439;-66
2022/07/03 02:03:33;;;;;;;5.60;2.93;;;17.40;96.20;;;;;;4995337;28;20872;-66
2022/07/03 02:06:05;;;;;;;4.47;2.83;;;17.40;96.30;;;;;;4994968;28;20435;-66
2022/07/03 02:08:45;;;;;;;3.53;2.80;;;17.40;96.40;;;;;;4995371;28;20446;-66
2022/07/03 02:11:15;;;;;;;5.13;2.77;;;17.30;96.50;;;;;;4994706;28;20450;-67
2022/07/03 02:13:56;;;;;;;3.60;2.90;;;17.40;96.50;;;;;;4995150;28;20800;-66
2022/07/03 02:16:26;;;;;;;3.60;3.17;;;17.40;96.60;;;;;;4994717;28;20510;-66
2022/07/03 02:18:59;;;;;;;5.40;3.30;;;17.30;96.50;;;;;;4995097;28;20538;-66
2022/07/03 02:21:29;;;;;;;4.73;2.67;;;17.40;96.50;;;;;;4994714;28;20515;-66
2022/07/03 02:24:17;;;;;;;3.57;2.50;;;17.30;96.30;;;;;;4995357;28;20451;-66
2022/07/03 02:26:54;;;;;;;3.37;2.40;;;17.30;96.60;;;;;;4994800;28;20450;-66
2022/07/03 02:29:32;;;;;;;6.50;3.10;;;17.30;96.70;;;;;;4994625;28;20884;-66
2022/07/03 02:32:01;;;;;;;3.33;2.60;;;17.30;96.70;;;;;;4993810;28;20522;-67
2022/07/03 02:34:30;;;;;;;3.50;2.40;;;17.20;96.70;;;;;;4994371;28;20443;-71
2022/07/03 02:37:00;;;;;;;4.00;2.63;;;17.20;96.70;;;;;;4994273;28;20502;-66
2022/07/03 02:39:36;;;;;;;6.13;2.70;;;17.20;96.60;;;;;;4995106;28;20447;-66
2022/07/03 02:42:09;;;;;;;3.67;2.80;;;17.10;96.40;;;;;;4994775;28;20486;-66
2022/07/03 02:44:46;;;;;;;3.43;3.00;;;17.10;96.40;;;;;;4995218;28;20448;-67
2022/07/03 02:47:20;;;;;;;3.90;3.10;;;17.00;96.30;;;;;;4975662;28;20448;-67
2022/07/03 02:50:02;;;;;;;3.90;2.77;;;17.00;96.40;;;;;;4977537;28;20526;-66
2022/07/03 02:52:37;;;;;;;4.77;2.80;;;16.90;96.40;;;;;;4994234;28;20452;-66
2022/07/03 02:55:09;;;;;;;6.20;3.70;;;16.90;96.40;;;;;;4994590;28;20952;-66
2022/07/03 02:57:40;;;;;;;3.83;3.10;;;16.90;96.50;;;;;;4993722;28;21408;-66
2022/07/03 03:00:14;;;;;;;4.43;2.90;;;16.80;96.20;;;;;;4994673;28;20769;-66
2022/07/03 03:02:55;;;;;;;4.90;3.03;;;16.70;95.90;;;;;;4992931;28;20479;-66
2022/07/03 03:05:28;;;;;;;4.30;2.93;;;16.60;96.10;;;;;;4994114;28;20435;-66
2022/07/03 03:08:03;;;;;;;3.50;3.10;;;16.50;96.20;;;;;;4993562;28;20475;-66
2022/07/03 03:10:30;;;;;;;8.40;3.80;;;16.50;96.50;;;;;;4993725;28;20447;-66
2022/07/03 03:13:04;;;;;;;3.17;2.70;;;16.40;96.60;;;;;;4994181;28;20482;-66
2022/07/03 03:15:34;;;;;;;3.10;2.60;;;16.40;96.80;;;;;;4993826;28;20454;-66
2022/07/03 03:18:04;;;;;;;4.10;3.13;;;16.40;96.90;;;;;;4993986;28;20507;-66
2022/07/03 03:20:33;;;;;;;3.90;3.27;;;16.40;97.10;;;;;;4993474;28;20471;-66
2022/07/03 03:23:22;;;;;;;3.40;2.97;;;16.40;97.10;;;;;;4993829;28;20506;-66
2022/07/03 03:25:53;;;;;;;8.23;3.10;;;16.30;97.20;;;;;;4993471;28;20556;-66
2022/07/03 03:28:21;;;;;;;7.83;3.67;;;16.30;97.40;;;;;;4993945;28;20450;-66
2022/07/03 03:30:51;;;;;;;7.53;4.00;;;16.20;97.30;;;;;;4993562;28;20448;-66
2022/07/03 03:33:18;;;;;;;5.73;4.37;;;16.20;97.20;;;;;;4993321;28;20447;-66
2022/07/03 03:35:45;;;;;;;5.20;3.47;;;16.20;97.20;;;;;;4993895;28;20435;-67
2022/07/03 03:38:13;;;;;;;4.63;3.80;;;16.20;97.30;;;;;;4993280;28;20447;-67
2022/07/03 03:40:40;;;;;;;9.00;3.40;;;16.10;97.20;;;;;;4993684;28;20439;-66
2022/07/03 03:43:08;;;;;;;3.20;2.63;;;16.10;97.20;;;;;;4993511;28;20490;-67
2022/07/03 03:45:35;;;;;;;4.43;2.90;;;16.10;97.10;;;;;;4992880;28;20911;-66
2022/07/03 03:48:04;;;;;;;3.90;3.43;;;16.10;97.10;;;;;;4993323;28;20476;-66
2022/07/03 03:50:31;;;;;;;8.03;3.07;;;16.00;96.90;;;;;;4993151;28;20456;-66
2022/07/03 03:53:01;;;;;;;6.20;2.93;;;16.00;97.00;;;;;;4993351;28;20448;-66
2022/07/03 03:55:28;;;;;;;4.20;2.60;;;16.00;97.10;;;;;;4992836;28;20531;-66
2022/07/03 03:57:55;;;;;;;3.60;3.20;;;16.00;97.30;;;;;;4992660;28;20463;-66
2022/07/03 04:00:22;;;;;;;9.20;3.70;;;16.00;97.60;;;;;;4993597;28;20439;-66
2022/07/03 04:02:49;;;;;;;6.03;4.83;;;16.00;98.00;;;;;;4992942;28;20510;-66
2022/07/03 04:05:18;;;;;;;4.47;3.67;;;15.90;98.00;;;;;;4993889;28;20451;-66
2022/07/03 04:07:45;;;;;;;4.83;3.07;;;16.00;98.60;;;;;;4993317;28;20503;-67
2022/07/03 04:10:13;;;;;;;6.30;4.20;;;16.00;98.80;;;;;;4993493;28;20937;-67
2022/07/03 04:12:40;;;;;;;4.90;3.87;;;15.90;99.00;;;;;;4993137;28;20439;-67
2022/07/03 04:15:08;;;;;;;9.33;4.60;;;15.90;99.40;;;;;;4993684;28;20969;-66
2022/07/03 04:17:35;;;;;;;5.87;5.03;;;15.90;99.60;;;;;;4993220;28;20424;-66
2022/07/03 04:20:03;;;;;;;5.97;5.37;;;16.00;99.90;;;;;;4992456;28;20611;-66
2022/07/03 04:22:32;;;;;;;5.03;3.77;;;16.00;99.90;;;;;;4993146;28;20486;-68
2022/07/03 04:24:59;;;;;;;5.63;4.10;;;16.00;99.90;;;;;;4993523;28;20442;-68
2022/07/03 04:27:26;;;;;;;5.10;4.20;;;16.10;99.90;;;;;;4992713;28;20435;-68
2022/07/03 04:29:53;;;;;;;4.00;3.40;;;16.10;99.90;;;;;;4993178;28;20471;-68
2022/07/03 04:32:20;;;;;;;4.47;3.80;;;16.20;99.90;;;;;;4992969;28;20459;-68
2022/07/03 04:34:48;;;;;;;8.43;5.00;;;16.30;99.90;;;;;;4993189;28;20447;-68
2022/07/03 04:37:15;;;;;;;4.00;3.50;;;16.20;99.90;;;;;;4993083;28;20443;-72
2022/07/03 04:39:44;;;;;;;3.50;3.20;;;16.20;99.90;;;;;;4993286;28;20501;-68
2022/07/03 04:42:11;;;;;;;3.60;2.90;;;16.30;99.90;;;;;;4993026;28;20837;-68
2022/07/03 04:44:38;;;;;;;4.10;3.53;;;16.30;99.90;;;;;;4993551;28;20773;-68
2022/07/03 04:47:05;;;;;;;3.27;2.87;;;16.40;99.90;;;;;;4992566;28;21000;-68
2022/07/03 04:49:32;;;;;;;3.83;3.43;;;16.50;99.90;;;;;;4993015;28;20439;-68
2022/07/03 04:51:59;;;;;;;6.13;3.30;;;16.50;99.90;;;;;;4992583;28;20440;-68
2022/07/03 04:54:26;;;;;;;4.50;3.90;;;16.60;99.90;;;;;;4993097;28;20443;-68
2022/07/03 04:56:55;;;;;;;3.63;2.60;;;16.70;99.90;;;;;;4992769;28;20446;-68
2022/07/03 04:59:22;;;;;;;6.77;3.10;;;16.80;99.90;;;;;;4993042;28;20448;-68
2022/07/03 05:01:49;;;;;;;3.00;2.60;;;16.90;99.90;;;;;;4992439;28;20439;-68
2022/07/03 05:04:16;;;;;;;6.20;2.83;;;17.00;99.90;;;;;;4992371;28;20486;-69
2022/07/03 05:06:44;;;;;;;3.90;2.80;;;17.00;99.90;;;;;;4973658;28;20944;-68
2022/07/03 05:09:11;;;;;;;5.17;3.03;;;17.10;99.90;;;;;;4975085;28;20476;-68
2022/07/03 05:11:38;;;;;;;4.43;2.70;;;17.10;99.90;;;;;;4992909;28;20436;-68
2022/07/03 05:14:07;;;;;;;3.93;2.80;;;17.20;99.90;;;;;;4992706;28;20451;-69
2022/07/03 05:16:34;;;;;;;9.60;3.70;;;17.30;99.90;;;;;;4993223;28;20470;-68
2022/07/03 05:19:01;;;;;;;3.97;2.90;;;17.40;99.90;;;;;;4992623;28;20448;-68
2022/07/03 05:21:29;;;;;;;3.53;2.90;;;17.50;99.90;;;;;;4973595;28;20503;-69
2022/07/03 05:23:56;;;;;;;3.13;2.70;;;17.60;99.90;;;;;;4973347;28;20487;-68
2022/07/03 05:26:23;;;;;;;4.67;2.83;;;17.70;99.90;;;;;;4992233;28;20444;-68
2022/07/03 05:28:51;;;;;;;5.03;3.00;;;17.80;99.90;;;;;;4992253;28;20471;-69
2022/07/03 05:31:20;;;;;;;17.33;3.27;;;17.80;99.90;;;;;;4993798;28;20546;-69
2022/07/03 05:33:47;;;;;;;5.87;3.10;;;18.00;99.90;;;;;;4996430;28;20436;-69
2022/07/03 05:36:14;;;;;;;5.03;2.73;;;18.10;99.90;;;;;;4996357;28;20870;-68
2022/07/03 05:41:26;;;;;;;3.07;2.33;;;18.20;99.90;;;;;;4995975;28;20431;-68
2022/07/03 05:43:53;;;;;;;3.57;2.67;;;18.40;99.90;;;;;;4995828;28;20518;-69
2022/07/03 05:46:22;;;;;;;4.30;2.57;;;18.50;99.90;;;;;;4995604;28;20638;-68
2022/07/03 05:48:49;;;;;;;3.20;2.47;;;18.60;99.90;;;;;;4995987;28;20494;-69
2022/07/03 05:51:16;;;;;;;3.80;2.63;;;18.70;99.90;;;;;;4995949;28;20475;-74
2022/07/03 05:53:43;;;;;;;4.43;2.23;;;18.80;99.90;;;;;;4995542;28;20486;-68
2022/07/03 05:56:10;;;;;;;3.50;1.97;;;19.00;99.90;;;;;;4996003;28;20802;-68
2022/07/03 05:58:37;;;;;;;3.10;2.20;;;19.00;99.00;;;;;;4996215;28;20443;-68
2022/07/03 06:01:04;;;;;;;3.27;2.10;;;19.00;98.90;;;;;;4995626;28;20486;-68
2022/07/03 06:03:33;;;;;;;4.20;2.30;;;19.20;99.00;;;;;;4995844;28;20541;-69
2022/07/03 06:06:00;;;;;;;3.17;2.67;;;19.30;99.10;;;;;;4995650;28;20443;-68
2022/07/03 06:08:27;;;;;;;6.80;1.97;;;19.40;98.70;;;;;;4995721;28;20802;-68
2022/07/03 06:10:55;;;;;;;3.07;1.80;;;19.50;98.60;;;;;;4995478;28;20455;-68
2022/07/03 06:13:22;;;;;;;6.60;2.33;;;19.60;98.50;;;;;;4995583;28;20938;-68
2022/07/03 06:15:49;;;;;;;3.50;2.33;;;19.70;98.70;;;;;;4995576;28;20839;-69
2022/07/03 06:18:16;;;;;;;3.37;2.03;;;19.80;98.50;;;;;;4995681;28;20443;-68
2022/07/03 06:20:45;;;;;;;2.50;2.10;;;19.90;98.80;;;;;;4994841;28;21005;-69
2022/07/03 06:23:12;;;;;;;2.90;2.37;;;20.00;98.70;;;;;;4995493;28;20903;-68
2022/07/03 06:25:39;;;;;;;4.43;2.27;;;20.10;98.80;;;;;;4995475;28;20443;-68
2022/07/03 06:28:06;;;;;;;4.03;2.47;;;20.20;99.10;;;;;;4995423;28;20542;-68
2022/07/03 06:30:33;;;;;;;3.20;1.93;;;20.30;98.90;;;;;;4994314;28;20466;-69
2022/07/03 06:33:00;;;;;;;3.00;1.80;;;20.40;98.10;;;;;;4995166;28;20452;-69
2022/07/03 06:35:27;;;;;;;3.27;1.83;;;20.50;97.40;;;;;;4994940;28;20510;-68
2022/07/03 06:37:56;;;;;;;2.30;1.70;;;20.60;97.30;;;;;;4995010;28;20440;-68
2022/07/03 06:40:23;;;;;;;3.00;2.13;;;20.70;97.10;;;;;;4995450;28;20440;-68
2022/07/03 06:42:50;;;;;;;5.03;1.93;;;20.90;96.80;;;;;;4994144;28;20446;-68
2022/07/03 06:45:17;;;;;;;2.60;1.67;;;21.00;95.70;;;;;;4995364;28;20502;-68
2022/07/03 06:47:44;;;;;;;2.97;2.10;;;21.10;95.60;;;;;;4994735;28;20976;-68
2022/07/03 06:50:12;;;;;;;2.80;2.20;;;21.20;94.90;;;;;;4994613;28;20491;-71
2022/07/03 06:52:39;;;;;;;2.47;1.90;;;21.30;94.70;;;;;;4994690;28;20448;-68
2022/07/03 06:55:09;;;;;;;2.43;1.73;;;21.40;93.60;;;;;;4995006;28;20475;-69
2022/07/03 06:57:36;;;;;;;4.00;1.93;;;21.60;92.90;;;;;;4994805;28;20527;-68
2022/07/03 07:00:03;;;;;;;5.40;1.67;;;21.80;92.20;;;;;;4994907;28;20538;-69
2022/07/03 07:02:31;;;;;;;2.73;1.63;;;22.10;91.70;;;;;;4994034;28;20433;-66
2022/07/03 07:04:58;;;;;;;2.60;1.90;;;22.30;90.90;;;;;;4994422;28;20558;-66
2022/07/03 07:07:26;;;;;;;4.03;1.80;;;22.40;90.70;;;;;;4994315;28;20474;-66
2022/07/03 07:09:53;;;;;;;2.93;1.60;;;22.50;88.90;;;;;;4992248;28;20963;-68
2022/07/03 07:12:21;;;;;;;2.40;1.40;;;22.60;86.50;;;;;;4992027;28;20856;-66
2022/07/03 07:14:48;;;;;;;4.23;1.80;;;22.70;87.30;;;;;;4991953;28;20531;-66
2022/07/03 07:17:15;;;;;;;2.43;1.50;;;22.90;89.00;;;;;;4992883;28;20476;-66
2022/07/03 07:19:42;;;;;;;2.50;1.60;;;23.10;89.80;;;;;;4992073;28;20482;-69
2022/07/03 07:22:09;;;;;;;2.90;2.00;;;23.50;86.10;;;;;;4992701;28;20443;-66
2022/07/03 07:24:36;;;;;;;2.90;1.57;;;23.80;86.40;;;;;;4992439;28;20495;-66
2022/07/03 07:27:04;;;;;;;2.63;1.70;;;24.00;81.30;;;;;;4992324;28;20450;-66
2022/07/03 07:29:33;;;;;;;3.17;1.93;;;24.30;82.50;;;;;;4992281;28;21035;-66
2022/07/03 07:32:00;;;;;;;3.87;1.70;;;24.50;83.60;;;;;;4992430;28;20442;-66
2022/07/03 07:34:27;;;;;;;5.27;1.40;;;24.80;84.00;;;;;;4992439;28;20869;-68
2022/07/03 07:36:55;;;;;;;2.70;1.67;;;25.00;83.90;;;;;;4991323;28;20797;-68
2022/07/03 07:39:22;;;;;;;2.57;1.63;;;25.10;75.20;;;;;;4992148;28;20865;-66
2022/07/03 07:41:49;;;;;;;2.13;1.50;;;25.10;76.40;;;;;;4992085;28;20928;-67
2022/07/03 07:44:16;;;;;;;2.53;1.40;;;25.20;76.80;;;;;;4991513;28;20562;-66
2022/07/03 07:46:45;;;;;;;6.13;2.00;;;25.20;77.60;;;;;;4991724;28;20502;-68
2022/07/03 07:49:12;;;;;;;2.30;1.60;;;25.20;77.10;;;;;;4988002;28;20427;-66
2022/07/03 07:51:39;;;;;;;2.50;1.53;;;25.20;76.40;;;;;;4992558;28;20444;-66
2022/07/03 07:54:06;;;;;;;4.23;1.70;;;25.20;76.00;;;;;;4991749;28;20448;-66
2022/07/03 07:56:33;;;;;;;2.60;1.30;;;25.30;75.60;;;;;;4991456;28;20448;-67
2022/07/03 07:59:01;;;;;;;3.53;1.30;;;25.20;70.50;;;;;;4991983;28;20451;-66
2022/07/03 08:06:59;;;;;;;4.57;1.70;;;25.40;71.60;;;;;;4991681;28;20811;-66
2022/07/03 08:09:26;;;;;;;2.13;1.33;;;25.50;72.20;;;;;;4992101;28;20775;-66
2022/07/03 08:11:55;;;;;;;3.37;1.77;;;25.50;73.00;;;;;;4990644;28;21001;-66
2022/07/03 08:14:22;;;;;;;3.93;1.43;;;25.60;71.70;;;;;;4991393;28;20514;-67
2022/07/03 08:16:50;;;;;;;5.80;1.33;;;25.60;71.50;;;;;;4990774;28;20439;-66
2022/07/03 08:19:19;;;;;;;2.60;1.43;;;25.60;62.40;;;;;;4991866;28;20840;-66
2022/07/03 08:21:46;;;;;;;4.33;1.20;;;25.60;63.40;;;;;;4991110;28;20464;-66
2022/07/03 08:24:13;;;;;;;1.83;0.90;;;25.70;65.60;;;;;;4991343;28;20546;-66
2022/07/03 08:26:40;;;;;;;1.87;1.10;;;25.80;68.60;;;;;;4990826;28;20443;-66
2022/07/03 08:29:07;;;;;;;2.47;1.07;;;25.90;66.80;;;;;;4991495;28;20522;-66
2022/07/03 08:31:34;;;;;;;3.63;1.23;;;25.90;66.00;;;;;;4991436;28;20435;-66
2022/07/03 08:34:01;;;;;;;1.97;1.10;;;25.80;62.20;;;;;;4991180;28;20447;-66
2022/07/03 08:36:30;;;;;;;2.57;1.27;;;25.80;61.30;;;;;;4991952;28;20436;-66
2022/07/03 08:38:59;;;;;;;1.70;0.83;;;25.80;60.00;;;;;;4991357;28;20530;-66
2022/07/03 08:41:28;;;;;;;3.10;0.80;;;25.80;59.10;;;;;;4990533;28;20450;-68
2022/07/03 08:43:56;;;;;;;2.50;0.93;;;25.80;58.00;;;;;;4991428;28;20576;-66
2022/07/03 08:46:23;;;;;;;1.93;1.00;;;25.80;57.60;;;;;;4991036;28;21305;-66
2022/07/03 08:48:51;;;;;;;2.50;1.00;;;25.90;57.90;;;;;;4991543;28;20498;-66
2022/07/03 08:51:21;;;;;;;2.13;0.97;;;25.90;57.80;;;;;;4990320;28;20440;-66
2022/07/03 08:53:53;;;;;;;2.30;1.10;;;26.00;57.40;;;;;;4990659;28;20476;-67
2022/07/03 08:56:21;;;;;;;2.67;1.17;;;26.00;57.30;;;;;;4991623;28;20454;-66
2022/07/03 08:58:48;;;;;;;2.03;1.00;;;26.00;56.60;;;;;;4990594;28;20443;-67
2022/07/03 09:01:17;;;;;;;2.30;1.03;;;26.00;56.70;;;;;;4991325;28;20450;-67
2022/07/03 09:03:45;;;;;;;2.33;1.20;;;26.10;56.00;;;;;;4984491;28;20479;-67
2022/07/03 09:06:13;;;;;;;5.17;1.10;;;26.20;56.20;;;;;;4985757;28;20443;-67
2022/07/03 09:08:41;;;;;;;1.83;0.93;;;26.20;54.70;;;;;;4989338;28;20446;-66
2022/07/03 09:11:11;;;;;;;2.57;1.13;;;26.30;53.60;;;;;;4994008;28;20450;-68
2022/07/03 09:13:39;;;;;;;2.00;0.77;;;26.40;54.10;;;;;;4994590;28;20518;-66
2022/07/03 09:16:06;;;;;;;2.87;1.10;;;26.50;53.70;;;;;;4994222;28;20443;-67
2022/07/03 09:18:40;;;;;;;2.00;0.90;;;26.60;53.20;;;;;;4994217;28;20447;-67
2022/07/03 09:21:08;;;;;;;2.13;1.07;;;26.60;53.70;;;;;;4994952;28;20431;-67
2022/07/03 09:23:40;;;;;;;2.10;0.90;;;26.70;54.60;;;;;;4994002;28;20475;-67
2022/07/03 09:26:16;;;;;;;2.00;0.93;;;26.80;53.70;;;;;;4994959;28;20439;-66
2022/07/03 09:28:46;;;;;;;3.93;1.27;;;26.80;55.00;;;;;;4994054;28;20527;-67
2022/07/03 09:31:15;;;;;;;2.17;0.97;;;26.80;53.60;;;;;;4991451;28;20440;-66
2022/07/03 09:33:56;;;;;;;2.93;0.97;;;26.80;51.60;;;;;;4993870;28;20444;-66
2022/07/03 09:36:24;;;;;;;1.80;0.80;;;26.90;50.70;;;;;;4994576;28;20435;-68
2022/07/03 09:38:51;;;;;;;2.67;1.03;;;26.90;49.60;;;;;;4994143;28;20487;-67
2022/07/03 09:41:20;;;;;;;4.10;0.87;;;27.00;49.60;;;;;;4993194;28;20444;-68
2022/07/03 09:43:47;;;;;;;2.47;1.00;;;27.10;48.50;;;;;;4994151;28;20522;-67
2022/07/03 09:46:15;;;;;;;2.40;1.00;;;27.10;48.60;;;;;;4993193;28;20444;-66
2022/07/03 09:48:42;;;;;;;1.80;0.70;;;27.20;48.50;;;;;;4994010;28;20451;-69
2022/07/03 09:51:23;;;;;;;2.30;1.10;;;27.20;48.20;;;;;;4994424;28;20435;-67
2022/07/03 09:53:56;;;;;;;4.07;1.00;;;27.20;47.70;;;;;;4994204;28;20432;-67
2022/07/03 09:56:27;;;;;;;1.80;0.80;;;27.40;47.50;;;;;;4994562;28;20502;-66
2022/07/03 09:59:02;;;;;;;2.90;0.80;;;27.40;47.60;;;;;;4992627;28;21004;-66
2022/07/03 10:01:29;;;;;;;2.30;1.17;;;27.40;46.80;;;;;;4994283;28;20949;-66
2022/07/03 10:04:13;;;;;;;2.10;0.90;;;27.50;46.80;;;;;;4993570;28;20529;-69
2022/07/03 10:06:51;;;;;;;1.70;0.70;;;27.50;46.10;;;;;;4993654;28;20440;-66
2022/07/03 10:09:20;;;;;;;2.50;1.00;;;27.60;46.40;;;;;;4990457;28;20457;-67
2022/07/03 10:11:49;;;;;;;2.43;1.00;;;27.60;45.20;;;;;;4991279;28;20447;-66
2022/07/03 10:14:18;;;;;;;3.77;1.33;;;27.70;45.30;;;;;;4993989;28;20440;-67
2022/07/03 10:16:46;;;;;;;2.23;1.10;;;27.70;45.00;;;;;;4993306;28;20440;-66
2022/07/03 10:19:18;;;;;;;2.23;0.83;;;27.80;45.70;;;;;;4992720;28;20506;-66
2022/07/03 10:21:50;;;;;;;3.23;1.00;;;27.90;45.30;;;;;;4991440;28;20471;-67
2022/07/03 10:24:18;;;;;;;2.07;0.90;;;27.90;44.60;;;;;;4990289;28;20582;-67
2022/07/03 10:26:47;;;;;;;1.87;0.80;;;28.00;44.70;;;;;;4991079;28;20444;-71
2022/07/03 10:29:17;;;;;;;3.20;1.17;;;28.00;44.00;;;;;;4993460;28;20526;-67
2022/07/03 10:31:47;;;;;;;3.60;0.80;;;28.00;43.90;;;;;;4992886;28;20443;-67
2022/07/03 10:34:20;;;;;;;3.43;1.10;;;28.10;43.00;;;;;;4993136;28;20452;-67
2022/07/03 10:36:49;;;;;;;3.00;0.90;;;28.10;43.40;;;;;;4993182;28;20444;-66
2022/07/03 10:39:27;;;;;;;1.90;0.93;;;28.10;43.70;;;;;;4993480;28;20881;-67
2022/07/03 10:45:07;;;;;;;2.80;1.03;;;28.30;43.60;;;;;;4991296;28;20997;-66
2022/07/03 10:47:38;;;;;;;1.93;0.80;;;28.30;42.90;;;;;;4993771;28;20837;-67
2022/07/03 10:50:10;;;;;;;1.90;1.00;;;28.30;43.10;;;;;;4992733;28;20448;-67
2022/07/03 10:52:37;;;;;;;1.90;0.93;;;28.40;42.40;;;;;;4993142;28;20448;-67
2022/07/03 10:55:06;;;;;;;1.73;0.80;;;28.50;42.20;;;;;;4993048;28;21025;-67
2022/07/03 10:57:34;;;;;;;1.80;0.90;;;28.40;42.80;;;;;;4993072;28;20447;-67
2022/07/03 11:00:14;;;;;;;3.60;0.90;;;28.50;41.70;;;;;;4992646;28;20538;-67
2022/07/03 11:02:47;;;;;;;2.27;1.10;;;28.50;41.80;;;;;;4992312;28;20926;-69
2022/07/03 11:05:22;;;;;;;2.60;0.87;;;28.50;42.10;;;;;;4988687;28;20989;-67
2022/07/03 11:08:15;;;;;;;2.80;0.73;;;28.50;41.90;;;;;;4992696;28;20767;-68
2022/07/03 11:10:44;;;;;;;2.03;0.90;;;28.50;41.40;;;;;;4992046;28;20446;-66
2022/07/03 11:13:22;;;;;;;1.97;1.00;;;28.60;41.60;;;;;;4993057;28;20682;-66
2022/07/03 11:15:56;;;;;;;1.80;0.80;;;28.60;41.30;;;;;;4992348;28;20478;-67
2022/07/03 11:18:31;;;;;;;1.93;1.07;;;28.60;41.00;;;;;;4988859;28;20583;-66
2022/07/03 11:21:25;;;;;;;1.87;0.73;;;28.60;41.10;;;;;;4991923;28;20451;-67
2022/07/03 11:24:34;;;;;;;3.00;1.00;;;28.60;40.50;;;;;;4993164;28;20432;-66
2022/07/03 11:27:29;;;;;;;1.87;1.00;;;28.60;39.40;;;;;;4988541;28;21060;-69
2022/07/03 11:30:00;;;;;;;2.30;1.00;;;28.60;40.00;;;;;;4950003;28;21009;-67
2022/07/03 11:32:57;;;;;;;1.70;0.70;;;28.60;39.40;;;;;;4972979;28;20847;-66
2022/07/03 11:35:53;;;;;;;2.20;0.90;;;28.60;40.50;;;;;;4972516;28;20986;-66
2022/07/03 11:38:39;;;;;;;3.17;0.97;;;28.60;40.60;;;;;;4973423;28;20947;-66
2022/07/03 11:41:09;;;;;;;2.97;0.83;;;28.50;41.20;;;;;;4972760;28;20436;-67
2022/07/03 11:43:39;;;;;;;1.97;0.93;;;28.60;40.50;;;;;;4972810;28;20480;-69
2022/07/03 11:46:09;;;;;;;1.80;1.00;;;28.80;41.50;;;;;;4968964;28;20570;-66
2022/07/03 11:48:38;;;;;;;2.40;1.20;;;29.00;41.10;;;;;;4973002;28;20455;-66
2022/07/03 11:51:05;;;;;;;4.80;1.00;;;29.10;40.80;;;;;;4972238;28;20487;-68
2022/07/03 11:53:35;;;;;;;1.93;0.83;;;29.10;40.40;;;;;;4968904;28;20962;-66
2022/07/03 11:56:04;;;;;;;2.93;1.00;;;29.10;39.80;;;;;;4972442;28;20867;-66
2022/07/03 11:58:45;;;;;;;2.13;1.10;;;29.10;39.20;;;;;;4972819;28;20453;-66
2022/07/03 12:01:29;;;;;;;1.90;0.80;;;29.10;39.50;;;;;;4972198;28;20458;-67
2022/07/03 12:04:06;;;;;;;2.10;1.00;;;29.10;40.00;;;;;;4968851;28;20486;-66
2022/07/03 12:06:40;;;;;;;1.80;0.90;;;29.10;40.30;;;;;;4971864;28;20483;-66
2022/07/03 12:09:15;;;;;;;2.30;1.00;;;29.20;39.50;;;;;;4968633;28;20444;-67
2022/07/03 12:11:43;;;;;;;2.13;0.80;;;29.20;39.70;;;;;;4971351;28;20499;-74
2022/07/03 12:14:15;;;;;;;1.97;1.00;;;29.20;39.70;;;;;;4970926;28;20441;-67
2022/07/03 12:16:43;;;;;;;1.97;1.10;;;29.30;39.50;;;;;;4972750;28;20915;-66
2022/07/03 12:19:12;;;;;;;2.30;0.97;;;29.40;41.60;;;;;;4968673;28;20444;-67
2022/07/03 12:21:41;;;;;;;1.90;0.80;;;29.50;43.30;;;;;;4970501;28;20454;-68
2022/07/03 12:24:12;;;;;;;1.80;0.87;;;29.60;40.90;;;;;;4970905;28;21189;-66
2022/07/03 12:26:40;;;;;;;1.87;0.73;;;29.50;42.30;;;;;;4971973;28;20480;-67
2022/07/03 12:29:10;;;;;;;2.10;1.00;;;29.40;44.20;;;;;;4977858;28;20463;-68
2022/07/03 12:31:40;;;;;;;4.60;1.10;;;29.30;43.50;;;;;;4991818;28;20930;-66
2022/07/03 12:34:10;;;;;;;7.57;1.00;;;29.10;42.50;;;;;;4991146;28;20436;-66
2022/07/03 12:36:39;;;;;;;2.03;0.80;;;29.10;42.70;;;;;;4990142;28;20443;-67
2022/07/03 12:39:06;;;;;;;1.93;0.77;;;29.10;43.20;;;;;;4990574;28;20435;-66
2022/07/03 12:41:39;;;;;;;1.70;0.70;;;29.10;42.50;;;;;;4991148;28;20448;-66
2022/07/03 12:44:07;;;;;;;1.70;0.70;;;29.10;42.10;;;;;;4990998;28;20874;-67
2022/07/03 12:46:39;;;;;;;2.13;0.77;;;29.10;41.70;;;;;;4990801;28;20478;-67
2022/07/03 12:49:11;;;;;;;1.90;0.73;;;29.10;42.00;;;;;;4991330;28;20931;-66
2022/07/03 12:51:42;;;;;;;1.80;1.00;;;29.10;42.10;;;;;;4990635;28;20436;-67
2022/07/03 12:54:15;;;;;;;2.83;1.00;;;29.20;41.20;;;;;;4991394;28;20568;-67
2022/07/03 12:56:44;;;;;;;2.63;1.00;;;29.30;41.80;;;;;;4990980;28;20455;-66
2022/07/03 12:59:26;;;;;;;2.30;0.90;;;29.30;40.50;;;;;;4991170;28;20444;-67
2022/07/03 13:02:04;;;;;;;2.00;1.10;;;29.30;40.20;;;;;;4991015;28;20442;-66
2022/07/03 13:04:33;;;;;;;2.60;1.17;;;29.30;40.60;;;;;;4990778;28;20930;-66
2022/07/03 13:07:04;;;;;;;2.87;1.20;;;29.20;40.30;;;;;;4990963;28;20836;-67
2022/07/03 13:09:32;;;;;;;1.70;0.80;;;29.20;39.20;;;;;;4990318;28;20448;-66
2022/07/03 13:12:05;;;;;;;2.00;1.00;;;29.10;40.80;;;;;;4991139;28;20459;-68
2022/07/03 13:14:33;;;;;;;1.90;1.07;;;29.20;41.00;;;;;;4990066;28;20443;-66